Time;durP1;ratioP1;P1;durP2;ratioP2;P2;SDS_P1;SDS_P2;PMS_P1;PMS_P2;Temp;Humidity;BMP_temperature;BMP_pressure;BME280_temperature;BME280_humidity;BME280_pressure;Samples;Min_cycle;Max_cycle;Signal;HPM_P1;HPM_P2
2022/12/29 00:00:17;;;;;;;4.20;1.00;;;12.30;99.90;;;;;;4870769;29;20113;-82
2022/12/29 00:02:44;;;;;;;0.90;0.80;;;12.30;99.90;;;;;;4878923;29;20057;-81
2022/12/29 00:05:11;;;;;;;2.28;0.80;;;12.30;99.90;;;;;;4873645;29;20057;-80
2022/12/29 00:07:37;;;;;;;4.82;0.90;;;12.30;99.90;;;;;;4882699;29;20140;-80
2022/12/29 00:10:05;;;;;;;5.18;1.00;;;12.20;99.90;;;;;;4875117;29;20177;-80
2022/12/29 00:15:36;;;;;;;3.97;1.00;;;12.30;99.90;;;;;;4867801;29;20049;-82
2022/12/29 00:18:04;;;;;;;3.63;1.25;;;12.30;99.90;;;;;;4881927;29;20116;-81
2022/12/29 00:37:15;;;;;;;1.13;0.70;;;12.30;99.90;;;;;;4869463;29;20071;-80
2022/12/29 00:45:13;;;;;;;2.25;1.05;;;12.30;99.90;;;;;;4877660;29;20567;-81
2022/12/29 00:47:40;;;;;;;2.53;0.82;;;12.30;99.90;;;;;;4868615;29;20068;-80
2022/12/29 00:50:07;;;;;;;1.73;0.80;;;12.30;99.90;;;;;;4875612;29;20049;-81
2022/12/29 00:52:33;;;;;;;3.63;1.00;;;12.40;99.90;;;;;;4869754;29;20404;-81
2022/12/29 00:55:00;;;;;;;1.40;0.73;;;12.40;99.90;;;;;;4879218;29;20064;-82
2022/12/29 00:57:27;;;;;;;0.90;0.50;;;12.40;99.90;;;;;;4869905;29;20508;-81
2022/12/29 00:59:53;;;;;;;2.83;1.00;;;12.40;99.90;;;;;;4879294;29;20053;-81
2022/12/29 01:02:20;;;;;;;1.20;0.70;;;12.40;99.90;;;;;;4869845;29;20061;-81
2022/12/29 01:04:47;;;;;;;2.67;0.80;;;12.40;99.90;;;;;;4876753;29;20076;-80
2022/12/29 01:07:14;;;;;;;6.10;0.93;;;12.40;99.90;;;;;;4872196;29;20088;-81
2022/12/29 01:12:41;;;;;;;2.22;0.75;;;12.40;99.90;;;;;;4882817;29;20045;-80
2022/12/29 01:15:09;;;;;;;5.47;0.90;;;12.40;99.90;;;;;;4882601;29;20069;-80
2022/12/29 01:17:36;;;;;;;4.43;0.95;;;12.40;99.90;;;;;;4868804;29;20057;-80
2022/12/29 01:20:03;;;;;;;1.85;0.60;;;12.40;99.90;;;;;;4878510;29;20524;-81
2022/12/29 01:22:30;;;;;;;2.20;1.00;;;12.40;99.90;;;;;;4878877;29;20117;-80
2022/12/29 01:24:57;;;;;;;3.13;0.77;;;12.40;99.90;;;;;;4880661;29;20076;-81
2022/12/29 01:27:23;;;;;;;2.53;0.70;;;12.30;99.90;;;;;;4877358;29;20057;-82
2022/12/29 01:29:50;;;;;;;3.70;1.27;;;12.30;99.90;;;;;;4875776;29;20049;-80
2022/12/29 01:32:17;;;;;;;3.70;0.90;;;12.30;99.90;;;;;;4879395;29;20148;-80
2022/12/29 01:34:43;;;;;;;2.22;1.38;;;12.30;99.90;;;;;;4880229;29;20059;-80
2022/12/29 01:37:11;;;;;;;1.90;0.70;;;12.30;99.90;;;;;;4870974;29;20061;-80
2022/12/29 01:39:37;;;;;;;3.00;0.90;;;12.30;99.90;;;;;;4871842;29;20061;-81
2022/12/29 01:42:04;;;;;;;1.65;0.57;;;12.30;99.90;;;;;;4873079;29;20076;-82
2022/12/29 01:44:49;;;;;;;2.95;0.70;;;12.30;99.90;;;;;;4872532;29;20060;-81
2022/12/29 01:47:41;;;;;;;1.75;1.17;;;12.30;99.90;;;;;;4873075;29;20061;-80
2022/12/29 01:50:18;;;;;;;1.67;0.70;;;12.30;99.90;;;;;;4878979;29;20492;-80
2022/12/29 01:52:56;;;;;;;1.85;0.80;;;12.20;99.90;;;;;;4871617;29;20156;-80
2022/12/29 01:55:23;;;;;;;4.38;0.80;;;12.20;99.90;;;;;;4874397;29;20068;-81
2022/12/29 01:57:52;;;;;;;4.18;0.73;;;12.20;99.90;;;;;;4871883;29;20049;-80
2022/12/29 02:00:19;;;;;;;1.80;0.90;;;12.20;99.90;;;;;;4874027;29;20063;-80
2022/12/29 02:02:51;;;;;;;3.38;1.13;;;12.10;99.90;;;;;;4878576;29;20062;-80
2022/12/29 02:05:48;;;;;;;1.95;0.90;;;12.10;99.90;;;;;;4874459;29;20053;-80
2022/12/29 02:08:15;;;;;;;1.35;0.70;;;12.10;99.90;;;;;;4870118;29;20416;-80
2022/12/29 02:10:44;;;;;;;2.47;0.88;;;12.10;99.90;;;;;;4880130;29;20060;-80
2022/12/29 02:13:10;;;;;;;4.88;0.90;;;12.10;99.90;;;;;;4878734;29;20049;-81
2022/12/29 02:16:15;;;;;;;1.55;0.90;;;12.10;99.90;;;;;;4873795;29;20059;-82
2022/12/29 02:19:03;;;;;;;2.35;0.80;;;12.10;99.90;;;;;;4868135;29;20060;-80
2022/12/29 02:21:55;;;;;;;1.50;0.90;;;12.10;99.90;;;;;;4873159;29;20059;-82
2022/12/29 02:24:43;;;;;;;2.55;0.75;;;12.00;99.90;;;;;;4870595;29;20055;-81
2022/12/29 02:27:15;;;;;;;1.85;0.73;;;12.00;99.90;;;;;;4874835;29;20096;-82
2022/12/29 02:29:58;;;;;;;3.42;1.05;;;12.00;99.90;;;;;;4868793;29;20053;-80
2022/12/29 02:32:56;;;;;;;1.35;0.98;;;12.00;99.90;;;;;;4870898;29;20049;-81
2022/12/29 02:35:53;;;;;;;2.20;0.90;;;12.00;99.90;;;;;;4880760;29;20071;-81
2022/12/29 02:38:43;;;;;;;1.48;0.90;;;12.00;99.90;;;;;;4874432;29;20049;-82
2022/12/29 02:41:30;;;;;;;2.00;0.90;;;12.00;99.90;;;;;;4875486;29;20049;-81
2022/12/29 02:44:06;;;;;;;1.55;1.10;;;12.00;99.90;;;;;;4869023;29;20077;-82
2022/12/29 02:46:44;;;;;;;3.40;1.05;;;12.10;99.90;;;;;;4874588;29;20053;-81
2022/12/29 02:49:19;;;;;;;4.93;1.17;;;12.10;99.90;;;;;;4874267;29;20435;-81
2022/12/29 02:51:52;;;;;;;1.58;1.00;;;12.10;99.90;;;;;;4868177;29;20050;-80
2022/12/29 02:57:22;;;;;;;4.38;1.85;;;12.20;99.90;;;;;;4873896;29;20151;-81
2022/12/29 02:59:54;;;;;;;2.78;1.40;;;12.30;99.90;;;;;;4869591;29;20053;-80
2022/12/29 03:02:49;;;;;;;2.00;1.20;;;12.20;99.90;;;;;;4879325;29;20061;-82
2022/12/29 03:05:38;;;;;;;3.50;1.25;;;12.30;99.90;;;;;;4865471;29;20131;-81
2022/12/29 03:08:13;;;;;;;3.50;1.00;;;12.30;99.90;;;;;;4871226;29;20065;-81
2022/12/29 03:10:55;;;;;;;2.95;1.30;;;12.20;99.90;;;;;;4870552;29;20053;-80
2022/12/29 03:16:28;;;;;;;2.70;1.17;;;12.20;99.90;;;;;;4872652;29;20574;-81
2022/12/29 03:19:06;;;;;;;4.50;1.10;;;12.20;99.90;;;;;;4873751;29;20064;-81
2022/12/29 03:24:32;;;;;;;3.38;1.30;;;12.20;99.90;;;;;;4876149;29;20053;-80
2022/12/29 03:27:02;;;;;;;3.40;1.50;;;12.20;99.90;;;;;;4879014;29;20065;-82
2022/12/29 03:29:31;;;;;;;;;;;12.30;99.90;;;;;;4880502;29;20140;-80
2022/12/29 03:31:59;;;;;;;2.97;1.13;;;12.10;99.90;;;;;;4879307;29;19931;-82
2022/12/29 03:34:27;;;;;;;1.90;1.10;;;12.10;99.90;;;;;;4870952;29;20136;-81
2022/12/29 03:37:02;;;;;;;3.65;1.27;;;12.00;99.90;;;;;;4872122;29;20049;-81
2022/12/29 03:39:29;;;;;;;2.33;1.30;;;11.90;99.90;;;;;;4871568;29;20056;-81
2022/12/29 03:42:02;;;;;;;3.88;1.58;;;11.90;99.90;;;;;;4880906;29;20483;-80
2022/12/29 03:44:38;;;;;;;3.45;1.27;;;11.80;99.90;;;;;;4877974;29;20067;-81
2022/12/29 03:47:06;;;;;;;3.08;1.42;;;11.80;99.90;;;;;;4890790;29;20428;-81
2022/12/29 03:49:34;;;;;;;3.05;1.80;;;11.80;99.90;;;;;;4875310;29;20468;-81
2022/12/29 03:52:00;;;;;;;2.47;1.33;;;11.70;99.90;;;;;;4879200;29;20105;-81
2022/12/29 03:54:27;;;;;;;3.72;1.80;;;11.80;99.90;;;;;;4876943;29;20061;-81
2022/12/29 03:56:54;;;;;;;4.97;1.58;;;11.80;99.90;;;;;;4875166;29;20518;-81
2022/12/29 03:59:21;;;;;;;3.83;1.80;;;11.80;99.90;;;;;;4877232;29;20088;-81
2022/12/29 04:01:47;;;;;;;3.10;1.50;;;11.80;99.90;;;;;;4875927;29;20076;-81
2022/12/29 04:04:15;;;;;;;5.40;2.08;;;11.80;99.90;;;;;;4868517;29;20068;-81
2022/12/29 04:06:43;;;;;;;4.45;1.60;;;11.90;99.90;;;;;;4876712;29;20057;-80
2022/12/29 04:09:10;;;;;;;6.70;1.60;;;11.90;99.90;;;;;;4880899;29;20054;-83
2022/12/29 04:11:37;;;;;;;4.05;1.50;;;11.90;99.90;;;;;;4888716;29;20063;-79
2022/12/29 04:14:04;;;;;;;4.88;1.80;;;11.90;99.90;;;;;;4883337;29;20084;-80
2022/12/29 04:16:30;;;;;;;3.28;1.50;;;11.90;99.90;;;;;;4876044;29;20060;-84
2022/12/29 04:18:57;;;;;;;4.05;1.50;;;12.00;99.90;;;;;;4880168;29;20061;-80
2022/12/29 04:21:24;;;;;;;3.35;1.38;;;12.00;99.90;;;;;;4873236;29;20057;-83
2022/12/29 04:23:50;;;;;;;4.60;1.60;;;12.00;99.90;;;;;;4882688;29;20119;-82
2022/12/29 04:26:17;;;;;;;4.28;1.40;;;12.00;99.90;;;;;;4871826;29;20061;-81
2022/12/29 04:28:44;;;;;;;3.10;1.48;;;12.00;99.90;;;;;;4879479;29;20085;-83
2022/12/29 04:31:10;;;;;;;3.45;1.15;;;12.00;99.90;;;;;;4871703;29;20053;-82
2022/12/29 04:33:37;;;;;;;2.88;1.73;;;12.00;99.90;;;;;;4879860;29;20061;-83
2022/12/29 04:36:04;;;;;;;4.28;1.60;;;12.00;99.90;;;;;;4871974;29;20049;-81
2022/12/29 04:38:31;;;;;;;6.20;1.98;;;12.00;99.90;;;;;;4879587;29;20072;-83
2022/12/29 04:41:01;;;;;;;2.58;1.30;;;11.90;99.90;;;;;;4872297;29;20088;-83
2022/12/29 04:43:28;;;;;;;2.15;1.50;;;11.80;99.90;;;;;;4882463;29;20057;-83
2022/12/29 04:45:55;;;;;;;4.43;1.63;;;11.80;99.90;;;;;;4873356;29;20053;-83
2022/12/29 04:48:22;;;;;;;4.18;1.63;;;11.80;99.90;;;;;;4876360;29;20048;-83
2022/12/29 04:50:49;;;;;;;5.88;1.38;;;11.80;99.90;;;;;;4874142;29;20073;-83
2022/12/29 04:53:17;;;;;;;2.92;1.20;;;11.80;99.90;;;;;;4882837;29;20053;-83
2022/12/29 04:55:44;;;;;;;3.50;1.15;;;11.80;99.90;;;;;;4874405;29;20060;-83
2022/12/29 04:58:10;;;;;;;4.18;1.27;;;11.80;99.90;;;;;;4865969;29;20479;-83
2022/12/29 05:00:43;;;;;;;3.65;1.10;;;11.80;99.90;;;;;;4872831;29;20088;-83
2022/12/29 05:03:09;;;;;;;2.72;1.13;;;11.90;99.90;;;;;;4867668;29;20504;-83
2022/12/29 05:05:36;;;;;;;2.50;1.10;;;11.90;99.90;;;;;;4876996;29;20167;-82
2022/12/29 05:08:03;;;;;;;2.05;1.25;;;12.00;99.90;;;;;;4882348;29;20060;-84
2022/12/29 05:10:30;;;;;;;1.55;1.17;;;12.00;99.90;;;;;;4876063;29;20045;-83
2022/12/29 05:12:58;;;;;;;2.30;1.08;;;12.00;99.90;;;;;;4875456;29;20064;-83
2022/12/29 05:15:24;;;;;;;2.50;0.98;;;12.10;99.90;;;;;;4874843;29;20064;-83
2022/12/29 05:17:51;;;;;;;2.22;1.02;;;12.10;99.90;;;;;;4883917;29;20049;-82
2022/12/29 05:20:18;;;;;;;3.35;0.93;;;12.20;99.90;;;;;;4876513;29;20049;-84
2022/12/29 05:22:45;;;;;;;5.15;1.00;;;12.20;99.90;;;;;;4872366;29;20060;-83
2022/12/29 05:25:12;;;;;;;1.17;0.90;;;12.30;99.90;;;;;;4880919;29;20053;-83
2022/12/29 05:27:38;;;;;;;3.78;1.40;;;12.30;99.90;;;;;;4871552;29;20113;-83
2022/12/29 05:30:06;;;;;;;2.78;1.17;;;12.30;99.90;;;;;;4878714;29;20053;-82
2022/12/29 05:32:33;;;;;;;2.67;0.95;;;12.30;99.90;;;;;;4872188;29;20092;-83
2022/12/29 05:34:59;;;;;;;2.47;1.30;;;12.30;99.90;;;;;;4882436;29;20053;-83
2022/12/29 05:37:26;;;;;;;2.90;1.00;;;12.40;99.90;;;;;;4869768;29;20053;-83
2022/12/29 05:39:53;;;;;;;2.17;1.00;;;12.40;99.90;;;;;;4878623;29;20057;-83
2022/12/29 05:42:19;;;;;;;1.98;0.90;;;12.40;99.90;;;;;;4865833;29;20069;-83
2022/12/29 05:44:46;;;;;;;1.80;1.20;;;12.40;99.90;;;;;;4864524;29;20488;-84
2022/12/29 05:47:13;;;;;;;3.63;1.02;;;12.40;99.90;;;;;;4869666;29;20053;-83
2022/12/29 05:49:40;;;;;;;2.47;0.93;;;12.40;99.90;;;;;;4878413;29;20060;-83
2022/12/29 05:52:06;;;;;;;2.95;1.25;;;12.50;99.90;;;;;;4872816;29;20117;-83
2022/12/29 05:54:33;;;;;;;3.03;1.00;;;12.50;99.90;;;;;;4875106;29;20575;-83
2022/12/29 05:57:00;;;;;;;4.30;1.30;;;12.50;99.90;;;;;;4874114;29;20064;-82
2022/12/29 05:59:26;;;;;;;2.33;1.10;;;12.50;99.90;;;;;;4875268;29;20069;-83
2022/12/29 06:01:53;;;;;;;2.65;1.20;;;12.60;99.90;;;;;;4873371;29;20140;-82
2022/12/29 06:04:20;;;;;;;1.30;0.90;;;12.60;99.90;;;;;;4873284;29;20057;-82
2022/12/29 06:06:46;;;;;;;3.65;1.20;;;12.60;99.90;;;;;;4874425;29;20063;-83
2022/12/29 06:09:13;;;;;;;2.17;0.85;;;12.60;99.90;;;;;;4881047;29;20234;-80
2022/12/29 06:11:40;;;;;;;1.75;1.13;;;12.50;99.90;;;;;;4872973;29;20103;-81
2022/12/29 06:14:07;;;;;;;2.53;1.13;;;12.50;99.90;;;;;;4870445;29;20056;-80
2022/12/29 06:16:33;;;;;;;5.30;1.48;;;12.50;99.90;;;;;;4870360;29;20049;-82
2022/12/29 06:19:00;;;;;;;2.85;1.20;;;12.50;99.90;;;;;;4871823;29;20116;-83
2022/12/29 06:21:26;;;;;;;5.75;1.40;;;12.40;99.90;;;;;;4874835;29;20061;-82
2022/12/29 06:23:53;;;;;;;2.58;1.27;;;12.40;99.90;;;;;;4871761;29;20441;-83
2022/12/29 06:26:20;;;;;;;3.92;1.10;;;12.40;99.90;;;;;;4875578;29;20061;-81
2022/12/29 06:28:47;;;;;;;3.08;1.15;;;12.40;99.90;;;;;;4867596;29;20092;-83
2022/12/29 06:31:14;;;;;;;1.90;1.08;;;12.40;99.90;;;;;;4880348;29;20492;-82
2022/12/29 06:33:40;;;;;;;2.80;0.88;;;12.40;99.90;;;;;;4864328;29;20049;-83
2022/12/29 06:36:07;;;;;;;1.88;0.80;;;12.40;99.90;;;;;;4864650;29;20136;-84
2022/12/29 06:38:35;;;;;;;2.97;1.20;;;12.40;99.90;;;;;;4888729;29;20055;-83
2022/12/29 06:41:01;;;;;;;2.10;0.98;;;12.40;99.90;;;;;;4875476;29;20049;-81
2022/12/29 06:43:30;;;;;;;3.03;1.00;;;12.40;99.90;;;;;;4867595;29;20630;-83
2022/12/29 06:45:56;;;;;;;2.08;0.95;;;12.40;99.90;;;;;;4875509;29;20059;-81
2022/12/29 06:48:23;;;;;;;2.10;1.10;;;12.40;99.90;;;;;;4869833;29;20060;-83
2022/12/29 06:50:50;;;;;;;2.15;0.93;;;12.40;99.90;;;;;;4868404;29;20507;-83
2022/12/29 06:53:17;;;;;;;1.38;0.82;;;12.40;99.90;;;;;;4876989;29;20520;-82
2022/12/29 06:55:43;;;;;;;3.30;0.90;;;12.50;99.90;;;;;;4879706;29;20049;-83
2022/12/29 06:58:10;;;;;;;1.15;0.73;;;12.50;99.90;;;;;;4871034;29;20099;-80
2022/12/29 07:00:36;;;;;;;2.75;1.05;;;12.60;99.90;;;;;;4872775;29;20060;-83
2022/12/29 07:03:03;;;;;;;1.83;0.80;;;12.60;99.90;;;;;;4869746;29;20425;-82
2022/12/29 07:05:32;;;;;;;2.53;0.98;;;12.60;99.90;;;;;;4873940;29;20064;-83
2022/12/29 07:07:59;;;;;;;3.92;0.95;;;12.60;99.90;;;;;;4871931;29;20096;-83
2022/12/29 07:10:26;;;;;;;2.28;0.90;;;12.70;99.90;;;;;;4874232;29;20049;-83
2022/12/29 07:12:53;;;;;;;2.25;0.90;;;12.70;99.90;;;;;;4873137;29;20061;-82
2022/12/29 07:15:19;;;;;;;0.90;0.70;;;12.70;99.90;;;;;;4866702;29;20140;-83
2022/12/29 07:17:46;;;;;;;2.83;0.80;;;12.70;99.90;;;;;;4875707;29;20060;-84
2022/12/29 07:20:13;;;;;;;2.22;1.05;;;12.70;99.90;;;;;;4884991;29;20057;-84
2022/12/29 07:22:40;;;;;;;3.13;0.88;;;12.80;99.90;;;;;;4877102;29;20065;-82
2022/12/29 07:25:07;;;;;;;1.20;0.80;;;12.80;99.90;;;;;;4872274;29;20140;-82
2022/12/29 07:27:33;;;;;;;3.30;1.15;;;12.80;99.90;;;;;;4881323;29;20487;-82
2022/12/29 07:30:00;;;;;;;1.88;0.65;;;12.80;99.90;;;;;;4891109;29;20431;-81
2022/12/29 07:32:27;;;;;;;0.85;0.60;;;12.80;99.90;;;;;;4887316;29;20053;-82
2022/12/29 07:34:53;;;;;;;1.25;0.55;;;12.80;99.90;;;;;;4877702;29;20046;-83
2022/12/29 07:37:20;;;;;;;0.77;0.55;;;12.80;99.90;;;;;;4879162;29;20136;-82
2022/12/29 07:39:47;;;;;;;1.02;0.60;;;12.80;99.90;;;;;;4866966;29;20054;-83
2022/12/29 07:42:13;;;;;;;3.08;0.80;;;12.90;99.90;;;;;;4869719;29;20140;-81
2022/12/29 07:44:40;;;;;;;2.28;0.95;;;12.90;99.90;;;;;;4877649;29;20570;-82
2022/12/29 07:47:07;;;;;;;4.90;1.75;;;12.80;99.90;;;;;;4870477;29;20420;-81
2022/12/29 07:49:33;;;;;;;1.27;0.63;;;12.80;99.90;;;;;;4869821;29;20050;-82
2022/12/29 07:52:00;;;;;;;1.83;0.93;;;12.80;99.90;;;;;;4874869;29;20057;-83
2022/12/29 07:54:27;;;;;;;1.63;0.77;;;12.80;99.90;;;;;;4882937;29;20489;-81
2022/12/29 07:56:53;;;;;;;1.83;0.90;;;12.80;99.90;;;;;;4878064;29;20084;-83
2022/12/29 07:59:20;;;;;;;1.65;0.80;;;12.80;99.90;;;;;;4869304;29;20050;-82
2022/12/29 08:01:47;;;;;;;2.85;0.90;;;12.80;99.90;;;;;;4871233;29;20059;-82
2022/12/29 08:04:14;;;;;;;2.13;1.10;;;12.80;99.90;;;;;;4870127;29;20079;-81
2022/12/29 08:06:41;;;;;;;3.83;2.00;;;12.80;99.90;;;;;;4874754;29;20153;-82
2022/12/29 08:09:08;;;;;;;2.38;1.20;;;12.80;99.90;;;;;;4868934;29;20053;-81
2022/12/29 08:11:44;;;;;;;2.55;1.02;;;12.90;99.90;;;;;;4871917;29;20121;-82
2022/12/29 08:14:10;;;;;;;3.25;1.15;;;12.90;99.90;;;;;;4867883;29;20081;-81
2022/12/29 08:16:37;;;;;;;2.22;0.90;;;12.90;99.90;;;;;;4864709;29;20132;-82
2022/12/29 08:19:04;;;;;;;1.13;0.90;;;12.90;99.90;;;;;;4864027;29;20069;-82
2022/12/29 08:21:31;;;;;;;2.00;0.98;;;12.90;99.90;;;;;;4870342;29;20054;-82
2022/12/29 08:23:58;;;;;;;2.50;1.33;;;12.90;99.90;;;;;;4870956;29;20054;-82
2022/12/29 08:26:25;;;;;;;1.63;0.75;;;12.90;99.90;;;;;;4870931;29;20064;-82
2022/12/29 08:28:54;;;;;;;2.42;0.63;;;12.90;99.90;;;;;;4876274;29;20154;-81
2022/12/29 08:31:20;;;;;;;0.90;0.65;;;12.90;99.90;;;;;;4871214;29;20057;-82
2022/12/29 08:33:47;;;;;;;1.27;0.85;;;12.90;99.90;;;;;;4875555;29;20140;-81
2022/12/29 08:36:14;;;;;;;2.15;0.60;;;12.90;99.90;;;;;;4870136;29;20048;-83
2022/12/29 08:38:41;;;;;;;2.03;0.80;;;13.00;99.90;;;;;;4874085;29;20085;-83
2022/12/29 08:41:08;;;;;;;2.45;1.17;;;13.00;99.90;;;;;;4879931;29;20053;-80
2022/12/29 08:43:34;;;;;;;0.90;0.90;;;13.00;99.90;;;;;;4872882;29;20053;-81
2022/12/29 08:46:01;;;;;;;2.10;1.00;;;13.00;99.90;;;;;;4871177;29;20059;-81
2022/12/29 08:48:28;;;;;;;3.17;1.00;;;13.00;99.90;;;;;;4878782;29;20073;-82
2022/12/29 08:50:55;;;;;;;3.17;0.82;;;13.00;99.90;;;;;;4870903;29;20050;-82
2022/12/29 08:53:21;;;;;;;3.88;0.80;;;13.10;99.90;;;;;;4881538;29;20075;-83
2022/12/29 08:55:56;;;;;;;2.70;0.60;;;13.10;99.90;;;;;;4870254;29;20050;-82
2022/12/29 08:58:30;;;;;;;1.60;0.85;;;13.10;99.90;;;;;;4878700;29;20049;-81
2022/12/29 09:00:58;;;;;;;4.20;1.63;;;13.10;99.90;;;;;;4881043;29;20059;-82
2022/12/29 09:03:25;;;;;;;1.55;0.90;;;13.10;99.90;;;;;;4873703;29;20049;-82
2022/12/29 09:06:13;;;;;;;4.75;1.05;;;13.10;99.90;;;;;;4880858;29;20068;-82
2022/12/29 09:08:39;;;;;;;2.75;0.90;;;13.10;99.90;;;;;;4875611;29;20067;-83
2022/12/29 09:11:20;;;;;;;1.95;0.90;;;13.10;99.90;;;;;;4867878;29;20105;-82
2022/12/29 09:13:47;;;;;;;2.28;0.82;;;13.10;99.90;;;;;;4876730;29;20427;-82
2022/12/29 09:16:15;;;;;;;2.55;0.80;;;13.10;99.90;;;;;;4880611;29;20408;-82
2022/12/29 09:18:43;;;;;;;2.70;0.80;;;13.10;99.90;;;;;;4877770;29;20062;-82
2022/12/29 09:21:11;;;;;;;1.63;0.90;;;13.10;99.90;;;;;;4871386;29;20057;-82
2022/12/29 09:23:39;;;;;;;4.53;1.20;;;13.10;99.90;;;;;;4868939;29;20159;-82
2022/12/29 09:26:07;;;;;;;1.65;1.00;;;13.10;99.90;;;;;;4879321;29;20116;-81
2022/12/29 09:28:34;;;;;;;1.52;0.88;;;13.00;99.90;;;;;;4879242;29;20117;-83
2022/12/29 09:31:01;;;;;;;3.63;1.33;;;13.00;99.90;;;;;;4874744;29;20055;-81
2022/12/29 09:33:28;;;;;;;3.28;1.33;;;12.90;99.90;;;;;;4875316;29;20061;-82
2022/12/29 09:35:56;;;;;;;2.80;0.98;;;12.90;99.90;;;;;;4879675;29;20060;-82
2022/12/29 09:38:24;;;;;;;3.00;1.30;;;13.00;99.90;;;;;;4886692;29;20111;-83
2022/12/29 09:41:08;;;;;;;4.85;1.20;;;12.90;99.90;;;;;;4872872;29;20053;-82
2022/12/29 09:43:38;;;;;;;2.33;1.15;;;12.90;99.90;;;;;;4874555;29;20095;-82
2022/12/29 09:46:34;;;;;;;2.47;1.02;;;12.90;99.90;;;;;;4870671;29;20053;-81
2022/12/29 09:49:07;;;;;;;3.17;1.40;;;12.90;99.90;;;;;;4875573;29;20049;-81
2022/12/29 09:51:37;;;;;;;2.58;1.55;;;12.90;99.90;;;;;;4869262;29;20053;-81
2022/12/29 09:54:26;;;;;;;7.22;1.92;;;12.80;99.90;;;;;;4872835;29;20053;-81
2022/12/29 09:56:54;;;;;;;2.60;1.80;;;12.90;99.90;;;;;;4870265;29;20129;-83
2022/12/29 09:59:26;;;;;;;3.58;2.17;;;12.90;99.90;;;;;;4878512;29;20046;-82
2022/12/29 10:02:22;;;;;;;4.68;1.50;;;12.90;99.90;;;;;;4869040;29;20431;-83
2022/12/29 10:04:50;;;;;;;3.38;1.25;;;12.90;99.90;;;;;;4870022;29;20056;-82
2022/12/29 10:07:35;;;;;;;3.75;1.40;;;12.90;99.90;;;;;;4873545;29;20053;-81
2022/12/29 10:10:14;;;;;;;3.53;1.23;;;12.90;99.90;;;;;;4872650;29;20053;-82
2022/12/29 10:12:59;;;;;;;2.30;1.33;;;12.90;99.90;;;;;;4868102;29;20072;-81
2022/12/29 10:15:41;;;;;;;1.45;0.93;;;13.00;99.90;;;;;;4869560;29;20060;-82
2022/12/29 10:18:27;;;;;;;3.38;1.20;;;13.00;99.90;;;;;;4873611;29;20040;-83
2022/12/29 10:21:20;;;;;;;2.08;1.17;;;13.00;99.90;;;;;;4894945;29;20047;-84
2022/12/29 10:23:52;;;;;;;3.92;1.10;;;13.00;99.90;;;;;;4893100;29;20041;-85
2022/12/29 10:26:26;;;;;;;3.65;1.05;;;13.00;99.90;;;;;;4897321;29;20051;-84
2022/12/29 10:29:03;;;;;;;1.23;1.00;;;13.00;99.90;;;;;;4894262;29;20101;-84
2022/12/29 10:31:38;;;;;;;3.67;1.17;;;13.00;99.90;;;;;;4874783;29;20049;-82
2022/12/29 10:34:22;;;;;;;4.75;1.25;;;13.10;99.90;;;;;;4877304;29;20059;-83
2022/12/29 10:36:55;;;;;;;2.30;1.10;;;13.10;99.90;;;;;;4873920;29;20053;-81
2022/12/29 10:39:45;;;;;;;3.33;1.45;;;13.10;99.90;;;;;;4871999;29;20114;-81
2022/12/29 10:42:27;;;;;;;2.07;1.10;;;13.10;99.90;;;;;;4870869;29;20079;-80
2022/12/29 10:44:55;;;;;;;2.17;1.20;;;13.10;99.90;;;;;;4871499;29;20063;-80
2022/12/29 10:47:29;;;;;;;4.20;1.17;;;13.20;99.90;;;;;;4872797;29;20515;-81
2022/12/29 10:49:58;;;;;;;6.00;1.25;;;13.20;99.90;;;;;;4876304;29;20057;-82
2022/12/29 10:52:26;;;;;;;2.38;1.10;;;13.20;99.90;;;;;;4865199;29;20076;-83
2022/12/29 10:55:03;;;;;;;1.63;0.80;;;13.20;99.90;;;;;;4878997;29;20053;-84
2022/12/29 10:57:33;;;;;;;1.75;0.80;;;13.20;99.90;;;;;;4870952;29;20419;-82
2022/12/29 11:00:00;;;;;;;4.95;1.30;;;13.20;99.90;;;;;;4867583;29;20825;-84
2022/12/29 11:03:02;;;;;;;3.30;1.30;;;13.20;99.90;;;;;;4874376;29;20057;-83
2022/12/29 11:05:49;;;;;;;1.23;1.00;;;13.20;99.90;;;;;;4868381;29;20135;-85
2022/12/29 11:08:27;;;;;;;2.30;1.60;;;13.30;99.90;;;;;;4880060;29;20063;-83
2022/12/29 11:11:23;;;;;;;2.72;1.65;;;13.30;99.90;;;;;;4872630;29;20084;-83
2022/12/29 11:14:02;;;;;;;2.15;1.23;;;13.40;99.90;;;;;;4872035;29;20112;-84
2022/12/29 11:16:31;;;;;;;3.47;0.88;;;13.40;99.90;;;;;;4878458;29;20049;-84
2022/12/29 11:18:59;;;;;;;4.60;1.35;;;13.50;99.90;;;;;;4880822;29;21092;-84
2022/12/29 11:21:27;;;;;;;2.85;1.13;;;13.50;99.90;;;;;;4876367;29;20052;-85
2022/12/29 11:24:05;;;;;;;2.08;1.23;;;13.60;99.90;;;;;;4882059;29;20153;-84
2022/12/29 11:26:33;;;;;;;3.33;1.23;;;13.60;99.90;;;;;;4874502;29;20084;-83
2022/12/29 11:29:21;;;;;;;3.15;1.10;;;13.70;99.90;;;;;;4875727;29;20135;-85
2022/12/29 11:31:57;;;;;;;2.58;0.85;;;13.70;99.90;;;;;;4886203;29;20053;-86
2022/12/29 11:34:26;;;;;;;1.77;0.80;;;13.70;99.90;;;;;;4875501;29;20101;-84
2022/12/29 11:37:03;;;;;;;2.08;0.85;;;13.70;99.90;;;;;;4872540;29;20132;-82
2022/12/29 11:39:32;;;;;;;4.63;0.85;;;13.70;99.90;;;;;;4875338;29;20052;-82
2022/12/29 11:41:59;;;;;;;1.75;0.82;;;13.70;99.90;;;;;;4888641;29;20048;-84
2022/12/29 11:44:27;;;;;;;3.00;1.20;;;13.80;99.90;;;;;;4877566;29;20058;-84
2022/12/29 11:46:54;;;;;;;1.50;1.10;;;13.80;99.90;;;;;;4877803;29;20057;-83
2022/12/29 11:49:24;;;;;;;2.17;1.20;;;13.80;99.90;;;;;;4872856;29;20053;-85
2022/12/29 11:51:56;;;;;;;4.32;1.40;;;13.70;99.90;;;;;;4873103;29;20106;-84
2022/12/29 11:54:31;;;;;;;2.53;1.10;;;13.60;99.90;;;;;;4871548;29;20134;-84
2022/12/29 11:57:13;;;;;;;2.78;1.80;;;13.60;99.90;;;;;;4876065;29;20061;-83
2022/12/29 11:59:42;;;;;;;3.45;1.40;;;13.60;99.90;;;;;;4880361;29;20048;-84
2022/12/29 12:03:04;;;;;;;2.22;1.00;;;13.50;99.90;;;;;;4880915;29;20527;-82
2022/12/29 12:05:52;;;;;;;2.47;1.25;;;13.50;99.90;;;;;;4863644;29;20060;-83
2022/12/29 12:09:09;;;;;;;4.93;1.00;;;13.40;99.90;;;;;;4889230;29;20082;-84
2022/12/29 12:11:43;;;;;;;2.00;1.15;;;13.40;99.90;;;;;;4870071;29;20065;-84
2022/12/29 12:14:27;;;;;;;4.38;1.40;;;13.50;99.90;;;;;;4881046;29;20139;-83
2022/12/29 12:16:59;;;;;;;2.67;1.05;;;13.60;99.90;;;;;;4876588;29;20567;-84
2022/12/29 12:19:34;;;;;;;2.38;0.90;;;13.70;99.90;;;;;;4877223;29;20329;-85
2022/12/29 12:22:10;;;;;;;2.85;1.05;;;13.70;99.90;;;;;;4891139;29;20511;-84
2022/12/29 12:24:45;;;;;;;1.65;0.88;;;13.70;99.90;;;;;;4882989;29;20117;-85
2022/12/29 12:27:26;;;;;;;2.28;1.30;;;13.70;99.90;;;;;;4887147;29;20400;-82
2022/12/29 12:30:09;;;;;;;1.92;0.90;;;13.80;99.90;;;;;;4903430;29;20048;-83
2022/12/29 12:32:43;;;;;;;4.68;1.27;;;13.80;99.90;;;;;;4880042;29;20136;-82
2022/12/29 12:35:16;;;;;;;5.13;2.00;;;13.80;99.90;;;;;;4876013;29;20199;-82
2022/12/29 12:38:06;;;;;;;1.90;1.00;;;13.80;99.90;;;;;;4873743;29;20056;-82
2022/12/29 12:40:46;;;;;;;1.63;1.15;;;13.80;99.90;;;;;;4875119;29;20046;-83
2022/12/29 12:43:34;;;;;;;2.35;1.02;;;13.80;99.90;;;;;;4872680;29;20057;-82
2022/12/29 12:46:34;;;;;;;1.02;0.80;;;13.90;99.90;;;;;;4870881;29;20140;-82
2022/12/29 12:49:04;;;;;;;;;;;13.90;99.90;;;;;;4880364;29;20086;-81
2022/12/29 12:51:30;;;;;;;1.95;1.10;;;13.90;99.90;;;;;;4875215;29;20290;-83
2022/12/29 12:54:02;;;;;;;2.50;1.10;;;13.90;99.90;;;;;;4875474;29;20509;-81
2022/12/29 12:56:41;;;;;;;3.78;1.10;;;13.90;99.90;;;;;;4882180;29;20060;-81
2022/12/29 12:59:28;;;;;;;3.72;1.40;;;13.80;99.90;;;;;;4877212;29;20053;-83
2022/12/29 13:02:21;;;;;;;2.50;1.40;;;13.80;99.90;;;;;;4879773;29;20428;-83
2022/12/29 13:05:20;;;;;;;2.75;1.30;;;13.90;99.90;;;;;;4871331;29;20098;-81
2022/12/29 13:08:13;;;;;;;2.45;1.10;;;13.90;99.90;;;;;;4872486;29;20632;-81
2022/12/29 13:10:58;;;;;;;1.73;1.13;;;13.90;99.90;;;;;;4873211;29;20503;-82
2022/12/29 13:14:03;;;;;;;3.97;1.40;;;13.90;99.90;;;;;;4872725;29;20420;-83
2022/12/29 13:16:47;;;;;;;2.92;1.30;;;13.80;99.90;;;;;;4869693;29;20156;-83
2022/12/29 13:19:31;;;;;;;4.15;1.50;;;13.70;99.90;;;;;;4886326;29;20064;-82
2022/12/29 13:22:21;;;;;;;4.40;1.42;;;13.70;99.90;;;;;;4872054;29;20067;-81
2022/12/29 13:24:53;;;;;;;3.40;1.33;;;13.60;99.90;;;;;;4889876;29;20053;-82
2022/12/29 13:27:44;;;;;;;4.15;1.55;;;13.60;99.90;;;;;;4876623;29;20094;-83
2022/12/29 13:30:23;;;;;;;3.63;2.50;;;13.60;99.90;;;;;;4877381;29;20383;-82
2022/12/29 13:33:05;;;;;;;5.65;2.40;;;13.60;99.90;;;;;;4879209;29;20511;-82
2022/12/29 13:35:38;;;;;;;1.92;1.30;;;13.50;99.90;;;;;;4878713;29;20059;-81
2022/12/29 13:38:30;;;;;;;2.08;1.40;;;13.50;99.90;;;;;;4874328;29;20060;-83
2022/12/29 13:41:04;;;;;;;3.15;1.40;;;13.50;99.90;;;;;;4885778;29;20053;-82
2022/12/29 13:43:34;;;;;;;4.13;1.70;;;13.40;99.90;;;;;;4878702;29;20083;-82
2022/12/29 13:46:09;;;;;;;4.38;1.42;;;13.40;99.90;;;;;;4875211;29;20060;-80
2022/12/29 13:49:01;;;;;;;6.95;1.60;;;13.40;99.90;;;;;;4873702;29;20060;-81
2022/12/29 13:51:29;;;;;;;1.67;1.13;;;13.40;99.90;;;;;;4868133;29;20049;-81